Time;durP1;ratioP1;P1;durP2;ratioP2;P2;SDS_P1;SDS_P2;PMS_P1;PMS_P2;Temp;Humidity;BMP_temperature;BMP_pressure;BME280_temperature;BME280_humidity;BME280_pressure;Samples;Min_cycle;Max_cycle;Signal;HPM_P1;HPM_P2
2021/05/07 00:01:07;;;;;;;;;;;;;;;12.67;100.00;101148.46;1707074;83;20290;-76
2021/05/07 00:03:37;;;;;;;;;;;;;;;12.63;100.00;101147.86;1707172;83;20315;-76
2021/05/07 00:06:07;;;;;;;;;;;;;;;12.60;100.00;101143.32;1707351;84;20160;-76
2021/05/07 00:08:36;;;;;;;;;;;;;;;12.55;100.00;101146.68;1706698;83;21205;-74
2021/05/07 00:11:06;;;;;;;;;;;;;;;12.51;100.00;101141.30;1705083;84;20244;-74
2021/05/07 00:13:34;;;;;;;;;;;;;;;12.52;100.00;101146.89;1705155;83;20153;-74
2021/05/07 00:16:03;;;;;;;;;;;;;;;12.50;100.00;101151.38;1705108;84;20236;-74
2021/05/07 00:18:33;;;;;;;;;;;;;;;12.47;100.00;101147.20;1705224;84;20220;-75
2021/05/07 00:21:03;;;;;;;;;;;;;;;12.45;100.00;101145.16;1705246;84;21538;-75
2021/05/07 00:23:32;;;;;;;;;;;;;;;12.43;100.00;101146.20;1704984;84;20995;-75
2021/05/07 00:26:00;;;;;;;;;;;;;;;12.45;100.00;101150.82;1705068;83;20232;-75
2021/05/07 00:28:28;;;;;;;;;;;;;;;12.43;100.00;101152.70;1705196;84;20303;-74
2021/05/07 00:30:56;;;;;;;;;;;;;;;12.43;100.00;101160.52;1705253;84;20223;-74
2021/05/07 00:33:23;;;;;;;;;;;;;;;12.42;100.00;101155.77;1705235;84;22129;-75
2021/05/07 00:35:51;;;;;;;;;;;;;;;12.44;100.00;101158.29;1705314;84;20527;-74
2021/05/07 00:38:19;;;;;;;;;;;;;;;12.44;100.00;101159.59;1705156;84;20157;-74
2021/05/07 00:40:47;;;;;;;;;;;;;;;12.44;100.00;101166.94;1705216;84;20526;-75
2021/05/07 00:43:15;;;;;;;;;;;;;;;12.47;100.00;101161.98;1705330;83;20232;-75
2021/05/07 00:45:43;;;;;;;;;;;;;;;12.50;100.00;101161.33;1705210;84;21197;-75
2021/05/07 00:48:15;;;;;;;;;;;;;;;12.53;100.00;101158.52;1705197;84;20152;-74
2021/05/07 00:50:46;;;;;;;;;;;;;;;12.55;100.00;101158.39;1705362;83;20523;-74
2021/05/07 00:53:17;;;;;;;;;;;;;;;12.54;100.00;101151.05;1705118;83;20236;-74
2021/05/07 00:55:47;;;;;;;;;;;;;;;12.54;100.00;101155.45;1705228;84;20240;-75
2021/05/07 00:58:17;;;;;;;;;;;;;;;12.54;100.00;101155.45;1705376;83;21374;-74
2021/05/07 01:00:46;;;;;;;;;;;;;;;12.52;100.00;101163.34;1705033;84;20192;-75
2021/05/07 01:03:14;;;;;;;;;;;;;;;12.50;100.00;101163.92;1708325;83;20352;-75
2021/05/07 01:05:42;;;;;;;;;;;;;;;12.45;100.00;101163.38;1705289;83;20258;-75
2021/05/07 01:08:12;;;;;;;;;;;;;;;12.42;100.00;101156.23;1705070;83;20219;-74
2021/05/07 01:10:42;;;;;;;;;;;;;;;12.39;100.00;101155.13;1705900;82;21341;-77
2021/05/07 01:13:10;;;;;;;;;;;;;;;12.34;100.00;101153.31;1705562;83;20518;-75
2021/05/07 01:15:43;;;;;;;;;;;;;;;12.28;100.00;101150.66;1705703;83;20160;-75
2021/05/07 01:18:11;;;;;;;;;;;;;;;12.26;100.00;101147.30;1705849;84;20806;-76
2021/05/07 01:20:42;;;;;;;;;;;;;;;12.24;100.00;101149.64;1704283;84;20282;-75
2021/05/07 01:23:11;;;;;;;;;;;;;;;12.23;100.00;101151.86;1706267;84;21142;-75
2021/05/07 01:25:41;;;;;;;;;;;;;;;12.23;100.00;101145.36;1706007;84;20283;-77
2021/05/07 01:28:11;;;;;;;;;;;;;;;12.23;100.00;101143.59;1705366;84;20152;-74
2021/05/07 01:30:43;;;;;;;;;;;;;;;12.23;100.00;101139.69;1705234;83;20312;-74
2021/05/07 01:33:16;;;;;;;;;;;;;;;12.26;100.00;101140.79;1705257;84;20156;-76
2021/05/07 01:35:46;;;;;;;;;;;;;;;12.29;100.00;101144.95;1705380;82;22243;-76
2021/05/07 01:38:15;;;;;;;;;;;;;;;12.31;100.00;101134.00;1705105;84;20592;-74
2021/05/07 01:40:46;;;;;;;;;;;;;;;12.31;100.00;101130.94;1705060;84;20117;-75
2021/05/07 01:43:14;;;;;;;;;;;;;;;12.33;100.00;101133.42;1729049;82;20319;-74
2021/05/07 01:45:45;;;;;;;;;;;;;;;12.31;100.00;101133.53;1705332;83;20244;-75
2021/05/07 01:48:13;;;;;;;;;;;;;;;12.27;100.00;101130.76;1705276;83;21331;-74
2021/05/07 01:50:44;;;;;;;;;;;;;;;12.21;100.00;101127.27;1691641;84;20205;-74
2021/05/07 01:53:13;;;;;;;;;;;;;;;12.16;100.00;101131.45;1705235;83;20743;-74
2021/05/07 01:55:43;;;;;;;;;;;;;;;12.13;100.00;101135.55;1705311;84;20286;-74
2021/05/07 01:58:14;;;;;;;;;;;;;;;12.10;100.00;101134.91;1705196;83;20244;-74
2021/05/07 02:00:44;;;;;;;;;;;;;;;12.10;100.00;101138.35;1705059;83;22113;-74
2021/05/07 02:03:12;;;;;;;;;;;;;;;12.09;100.00;101139.77;1705094;84;20200;-74
2021/05/07 02:05:48;;;;;;;;;;;;;;;12.07;100.00;101135.11;1705440;82;20291;-74
2021/05/07 02:08:17;;;;;;;;;;;;;;;12.05;100.00;101136.53;1705016;84;20116;-74
2021/05/07 02:10:47;;;;;;;;;;;;;;;12.06;100.00;101139.48;1705008;83;20243;-74
2021/05/07 02:13:15;;;;;;;;;;;;;;;12.08;100.00;101134.19;1704944;84;22139;-75
2021/05/07 02:15:45;;;;;;;;;;;;;;;12.10;100.00;101138.35;1705547;82;20215;-76
2021/05/07 02:18:14;;;;;;;;;;;;;;;12.10;100.00;101132.31;1705037;84;20506;-75
2021/05/07 02:20:46;;;;;;;;;;;;;;;12.10;100.00;101138.81;1704864;84;20228;-76
2021/05/07 02:23:14;;;;;;;;;;;;;;;12.08;100.00;101139.39;1705152;84;20315;-76
2021/05/07 02:25:44;;;;;;;;;;;;;;;12.04;100.00;101137.91;1704906;84;21106;-75
2021/05/07 02:28:13;;;;;;;;;;;;;;;11.99;100.00;101133.03;1705055;82;20264;-75
2021/05/07 02:30:41;;;;;;;;;;;;;;;11.95;100.00;101134.14;1704746;84;20228;-75
2021/05/07 02:33:10;;;;;;;;;;;;;;;11.91;100.00;101137.03;1704752;84;20851;-75
2021/05/07 02:35:38;;;;;;;;;;;;;;;11.89;100.00;101137.14;1704883;84;20562;-75
2021/05/07 02:38:10;;;;;;;;;;;;;;;11.87;100.00;101132.48;1704912;84;21385;-74
2021/05/07 02:40:40;;;;;;;;;;;;;;;11.87;100.00;101133.78;1732086;82;20586;-74
2021/05/07 02:43:10;;;;;;;;;;;;;;;11.88;100.00;101133.33;1704920;84;20205;-75
2021/05/07 02:45:38;;;;;;;;;;;;;;;11.89;100.00;101135.00;1704870;84;20267;-74
2021/05/07 02:48:06;;;;;;;;;;;;;;;11.86;100.00;101133.91;1704915;84;20236;-74
2021/05/07 02:50:34;;;;;;;;;;;;;;;11.86;100.00;101141.23;1704756;84;22272;-74
2021/05/07 02:53:03;;;;;;;;;;;;;;;11.88;100.00;101144.56;1733013;82;20244;-74
2021/05/07 02:55:32;;;;;;;;;;;;;;;11.92;100.00;101143.91;1705026;84;20140;-75
2021/05/07 02:58:04;;;;;;;;;;;;;;;11.94;100.00;101138.97;1704729;84;20157;-74
2021/05/07 03:00:32;;;;;;;;;;;;;;;11.98;100.00;101136.55;1704796;84;20223;-73
2021/05/07 03:03:00;;;;;;;;;;;;;;;12.00;100.00;101132.53;1704889;84;21204;-74
2021/05/07 03:05:29;;;;;;;;;;;;;;;12.04;100.00;101139.22;1704735;84;20586;-74
2021/05/07 03:07:58;;;;;;;;;;;;;;;12.06;100.00;101145.17;1704931;84;20216;-75
2021/05/07 03:10:26;;;;;;;;;;;;;;;12.08;100.00;101145.89;1706494;84;20858;-74
2021/05/07 03:12:54;;;;;;;;;;;;;;;12.12;100.00;101146.08;1707222;84;20248;-75
2021/05/07 03:15:22;;;;;;;;;;;;;;;12.19;100.00;101142.12;1707149;84;21210;-75
2021/05/07 03:17:53;;;;;;;;;;;;;;;12.24;100.00;101149.64;1706956;84;20136;-74
2021/05/07 03:20:20;;;;;;;;;;;;;;;12.28;100.00;101148.05;1706878;84;20230;-75
2021/05/07 03:22:48;;;;;;;;;;;;;;;12.34;100.00;101152.02;1705054;84;20545;-74
2021/05/07 03:25:17;;;;;;;;;;;;;;;12.39;100.00;101149.47;1705260;84;20252;-75
2021/05/07 03:27:44;;;;;;;;;;;;;;;12.43;100.00;101156.14;1706919;84;22134;-74
2021/05/07 03:30:16;;;;;;;;;;;;;;;12.50;100.00;101154.81;1707702;84;20841;-75
2021/05/07 03:32:44;;;;;;;;;;;;;;;12.59;100.00;101150.76;1707664;83;20165;-75
2021/05/07 03:35:13;;;;;;;;;;;;;;;12.65;100.00;101159.00;1707347;84;20211;-75
2021/05/07 03:37:43;;;;;;;;;;;;;;;12.72;100.00;101164.17;1707760;83;20227;-74
2021/05/07 03:40:12;;;;;;;;;;;;;;;12.76;100.00;101160.89;1707521;84;21162;-75
2021/05/07 03:42:41;;;;;;;;;;;;;;;12.80;100.00;101154.52;1707340;83;20586;-75
2021/05/07 03:45:15;;;;;;;;;;;;;;;12.88;100.00;101155.31;1707761;84;20255;-79
2021/05/07 03:47:52;;;;;;;;;;;;;;;12.94;100.00;101151.83;1707634;83;20908;-75
2021/05/07 03:50:22;;;;;;;;;;;;;;;13.03;100.00;101158.17;1707656;84;20156;-76
2021/05/07 03:52:50;;;;;;;;;;;;;;;13.10;100.00;101155.09;1707685;84;22135;-74
2021/05/07 03:55:18;;;;;;;;;;;;;;;13.15;100.00;101153.45;1707676;83;20274;-74
2021/05/07 03:57:47;;;;;;;;;;;;;;;13.19;100.00;101149.70;1707815;83;20158;-74
2021/05/07 04:00:16;;;;;;;;;;;;;;;13.24;100.00;101148.94;1707682;84;20786;-75
2021/05/07 04:02:44;;;;;;;;;;;;;;;13.28;100.00;101142.55;1707747;84;20220;-75
2021/05/07 04:05:16;;;;;;;;;;;;;;;13.36;100.00;101154.59;1707691;84;21198;-75
2021/05/07 04:07:48;;;;;;;;;;;;;;;13.40;100.00;101157.33;1707742;83;20235;-75
2021/05/07 04:10:19;;;;;;;;;;;;;;;13.43;100.00;101151.92;1708792;84;20140;-76
2021/05/07 04:15:20;;;;;;;;;;;;;;;13.48;100.00;101145.91;1709998;83;20218;-75
2021/05/07 04:17:50;;;;;;;;;;;;;;;13.49;100.00;101146.75;1709954;83;21189;-75
2021/05/07 04:20:18;;;;;;;;;;;;;;;13.51;100.00;101148.30;1709860;83;20192;-75
2021/05/07 04:22:46;;;;;;;;;;;;;;;13.55;100.00;101153.67;1709624;84;20231;-75
2021/05/07 04:25:15;;;;;;;;;;;;;;;13.61;100.00;101151.92;1709625;83;20672;-76
2021/05/07 04:27:43;;;;;;;;;;;;;;;13.66;100.00;101145.06;1710058;83;20306;-77
2021/05/07 04:30:14;;;;;;;;;;;;;;;13.74;100.00;101144.06;1710034;83;21173;-77
2021/05/07 04:32:42;;;;;;;;;;;;;;;13.86;100.00;101146.25;1709787;83;20150;-77
2021/05/07 04:35:10;;;;;;;;;;;;;;;13.99;100.00;101157.47;1710048;83;20276;-77
2021/05/07 04:37:38;;;;;;;;;;;;;;;14.13;100.00;101159.93;1692506;83;20319;-76
2021/05/07 04:40:07;;;;;;;;;;;;;;;14.27;100.00;101163.66;1710360;83;20231;-75
2021/05/07 04:42:35;;;;;;;;;;;;;;;14.42;100.00;101173.02;1709834;83;21139;-76
2021/05/07 04:45:04;;;;;;;;;;;;;;;14.53;100.00;101166.52;1709844;83;20234;-77
2021/05/07 04:47:32;;;;;;;;;;;;;;;14.65;100.00;101156.92;1709801;84;20208;-75
2021/05/07 04:50:02;;;;;;;;;;;;;;;14.73;100.00;101163.25;1709808;84;20730;-76
2021/05/07 04:52:31;;;;;;;;;;;;;;;14.80;100.00;101165.73;1710067;83;20227;-78
2021/05/07 04:55:00;;;;;;;;;;;;;;;14.84;100.00;101167.18;1709539;83;21633;-77
2021/05/07 04:57:28;;;;;;;;;;;;;;;14.84;100.00;101160.65;1710117;83;20517;-76
2021/05/07 04:59:58;;;;;;;;;;;;;;;14.88;100.00;101165.64;1709960;83;20506;-75
2021/05/07 05:02:29;;;;;;;;;;;;;;;14.89;100.00;101156.39;1709768;83;20224;-77
2021/05/07 05:04:59;;;;;;;;;;;;;;;14.96;100.00;101145.84;1709330;83;20294;-76
2021/05/07 05:07:27;;;;;;;;;;;;;;;15.09;100.00;101137.38;1709504;83;21207;-76
2021/05/07 05:09:55;;;;;;;;;;;;;;;15.22;100.00;101132.87;1709037;83;20248;-77
2021/05/07 05:12:23;;;;;;;;;;;;;;;15.33;100.00;101131.57;1705157;84;20227;-75
2021/05/07 05:14:52;;;;;;;;;;;;;;;15.42;100.00;101141.78;1713685;83;20226;-75
2021/05/07 05:17:20;;;;;;;;;;;;;;;15.49;100.00;101138.23;1705159;84;20224;-76
2021/05/07 05:19:48;;;;;;;;;;;;;;;15.57;100.00;101141.90;1705274;84;21205;-74
2021/05/07 05:22:16;;;;;;;;;;;;;;;15.67;100.00;101138.08;1705152;84;20613;-76
2021/05/07 05:24:46;;;;;;;;;;;;;;;15.77;100.00;101141.16;1705370;84;20137;-77
2021/05/07 05:27:13;;;;;;;;;;;;;;;15.87;100.00;101142.56;1705343;84;20791;-75
2021/05/07 05:29:42;;;;;;;;;;;;;;;15.96;100.00;101154.91;1705111;84;20288;-76
2021/05/07 05:32:12;;;;;;;;;;;;;;;16.01;100.00;101156.69;1705279;84;22108;-77
2021/05/07 05:34:41;;;;;;;;;;;;;;;16.05;100.00;101159.39;1705367;83;20199;-75
2021/05/07 05:37:11;;;;;;;;;;;;;;;16.05;100.00;101158.08;1705195;83;20236;-75
2021/05/07 05:39:39;;;;;;;;;;;;;;;16.06;100.00;101161.53;1705163;84;20316;-75
2021/05/07 05:42:10;;;;;;;;;;;;;;;16.07;100.00;101159.28;1708678;82;20248;-75
2021/05/07 05:44:38;;;;;;;;;;;;;;;16.06;100.00;101165.47;1705224;83;22552;-76
2021/05/07 05:47:06;;;;;;;;;;;;;;;16.05;100.00;101170.37;1705285;84;20510;-76
2021/05/07 05:49:37;;;;;;;;;;;;;;;16.05;100.00;101169.86;1705328;83;20172;-76
2021/05/07 05:52:05;;;;;;;;;;;;;;;16.03;100.00;101171.78;1713333;83;20215;-74
2021/05/07 05:54:34;;;;;;;;;;;;;;;16.02;100.00;101170.62;1705229;84;20145;-74
2021/05/07 05:57:03;;;;;;;;;;;;;;;15.97;100.00;101167.05;1705539;83;21275;-77
2021/05/07 05:59:31;;;;;;;;;;;;;;;15.92;100.00;101168.38;1705331;83;20636;-76
2021/05/07 06:01:59;;;;;;;;;;;;;;;15.90;100.00;101175.03;1705093;83;20245;-76
2021/05/07 06:04:28;;;;;;;;;;;;;;;15.88;100.00;101170.41;1701091;83;20232;-77
2021/05/07 06:06:57;;;;;;;;;;;;;;;15.87;100.00;101172.19;1701667;84;20240;-75
2021/05/07 06:09:27;;;;;;;;;;;;;;;15.85;100.00;101174.11;1706068;84;22147;-77
2021/05/07 06:12:06;;;;;;;;;;;;;;;15.82;100.00;101178.75;1684950;83;20138;-77
2021/05/07 06:14:40;;;;;;;;;;;;;;;15.80;100.00;101181.95;1682442;84;20507;-77
2021/05/07 06:17:20;;;;;;;;;;;;;;;15.77;100.00;101173.03;1682506;85;20958;-77
2021/05/07 06:20:06;;;;;;;;;;;;;;;15.73;100.00;101175.05;1681977;84;20508;-77
2021/05/07 06:22:41;;;;;;;;;;;;;;;15.69;100.00;101177.59;1682624;85;21374;-77
2021/05/07 06:25:17;;;;;;;;;;;;;;;15.64;100.00;101170.55;1666970;85;20656;-78
2021/05/07 06:27:49;;;;;;;;;;;;;;;15.63;100.00;101170.22;1682307;85;20290;-78
2021/05/07 06:30:17;;;;;;;;;;;;;;;15.62;100.00;101166.41;1683602;84;20229;-78
2021/05/07 06:32:46;;;;;;;;;;;;;;;15.61;100.00;101159.03;1682455;84;20368;-80
2021/05/07 06:35:16;;;;;;;;;;;;;;;15.62;100.00;101167.71;1682817;84;22078;-80
2021/05/07 06:37:45;;;;;;;;;;;;;;;15.63;100.00;101163.68;1678018;85;20512;-77
2021/05/07 06:40:13;;;;;;;;;;;;;;;15.66;100.00;101162.13;1682632;84;20302;-77
2021/05/07 06:42:41;;;;;;;;;;;;;;;15.70;100.00;101168.77;1664129;84;20315;-79
2021/05/07 06:45:11;;;;;;;;;;;;;;;15.73;100.00;101171.64;1673813;84;20499;-77
2021/05/07 06:47:39;;;;;;;;;;;;;;;15.74;100.00;101170.66;1652120;86;21161;-78
2021/05/07 06:50:11;;;;;;;;;;;;;;;15.78;100.00;101172.09;1651917;86;20274;-78
2021/05/07 06:52:42;;;;;;;;;;;;;;;15.82;100.00;101173.05;1651776;86;20713;-78
2021/05/07 06:55:11;;;;;;;;;;;;;;;15.87;100.00;101177.89;1652491;86;20239;-77
2021/05/07 06:57:40;;;;;;;;;;;;;;;15.94;100.00;101169.91;1677711;85;20242;-78
2021/05/07 07:00:12;;;;;;;;;;;;;;;16.05;100.00;101172.98;1679276;85;21683;-77
2021/05/07 07:02:40;;;;;;;;;;;;;;;16.09;100.00;101171.76;1679396;85;20139;-76
2021/05/07 07:05:10;;;;;;;;;;;;;;;16.14;100.00;101178.78;1679124;85;20278;-79
2021/05/07 07:07:38;;;;;;;;;;;;;;;16.22;100.00;101178.98;1679681;85;20155;-78
2021/05/07 07:10:09;;;;;;;;;;;;;;;16.27;100.00;101175.53;1679736;83;20218;-80
2021/05/07 07:12:37;;;;;;;;;;;;;;;16.32;100.00;101171.56;1722262;83;21215;-78
2021/05/07 07:15:08;;;;;;;;;;;;;;;16.37;100.00;101173.31;1722614;83;20147;-78
2021/05/07 07:17:37;;;;;;;;;;;;;;;16.43;100.00;101172.81;1722105;83;20116;-78
2021/05/07 07:20:07;;;;;;;;;;;;;;;16.55;100.00;101178.88;1722792;83;20445;-77
2021/05/07 07:22:37;;;;;;;;;;;;;;;16.68;100.00;101170.83;1721544;83;20294;-79
2021/05/07 07:25:10;;;;;;;;;;;;;;;16.82;100.00;101158.69;1722581;83;21380;-79
2021/05/07 07:27:40;;;;;;;;;;;;;;;16.90;100.00;101162.83;1722951;81;20163;-78
2021/05/07 07:30:10;;;;;;;;;;;;;;;16.91;100.00;101171.86;1724873;82;20183;-76
2021/05/07 07:32:40;;;;;;;;;;;;;;;17.02;100.00;101169.65;1733135;82;20182;-81
2021/05/07 07:35:10;;;;;;;;;;;;;;;17.16;100.00;101169.80;1731003;82;20375;-77
2021/05/07 07:37:39;;;;;;;;;;;;;;;17.29;100.00;101172.52;1721999;82;21362;-78
2021/05/07 07:40:08;;;;;;;;;;;;;;;17.37;100.00;101173.19;1722092;82;20223;-78
2021/05/07 07:42:37;;;;;;;;;;;;;;;17.45;100.00;101174.69;1713951;82;20222;-79
2021/05/07 07:45:09;;;;;;;;;;;;;;;17.54;100.00;101170.42;1723929;83;20227;-76
2021/05/07 07:47:37;;;;;;;;;;;;;;;17.60;100.00;101162.04;1714035;82;20205;-78
2021/05/07 07:50:09;;;;;;;;;;;;;;;17.65;100.00;101160.66;1730859;83;21217;-77
2021/05/07 07:52:54;;;;;;;;;;;;;;;17.75;99.52;101153.65;1728128;83;20497;-75
2021/05/07 07:55:24;;;;;;;;;;;;;;;17.91;97.89;101154.44;1722619;82;20291;-77
2021/05/07 07:57:55;;;;;;;;;;;;;;;18.00;94.22;101154.92;1721370;83;20310;-80
2021/05/07 08:00:23;;;;;;;;;;;;;;;18.04;91.34;101154.17;1722581;82;20227;-77
2021/05/07 08:02:53;;;;;;;;;;;;;;;18.17;90.00;101154.73;1721988;82;21380;-78
2021/05/07 08:05:21;;;;;;;;;;;;;;;18.31;89.37;101146.45;1722753;82;20506;-76
2021/05/07 08:07:51;;;;;;;;;;;;;;;18.44;88.66;101140.42;1722519;83;20230;-79
2021/05/07 08:10:19;;;;;;;;;;;;;;;18.60;88.12;101135.45;1721349;83;20184;-79
2021/05/07 08:13:27;;;;;;;;;;;;;;;18.75;85.14;101134.03;1676585;85;20258;-76
2021/05/07 08:15:55;;;;;;;;;;;;;;;18.83;83.27;101128.87;1675726;85;22284;-79
2021/05/07 08:18:25;;;;;;;;;;;;;;;18.79;82.42;101125.37;1666651;85;20267;-80
2021/05/07 08:20:53;;;;;;;;;;;;;;;18.80;83.10;101121.75;1666518;86;20272;-75
2021/05/07 08:23:21;;;;;;;;;;;;;;;18.86;83.17;101115.44;1671794;84;20518;-75
2021/05/07 08:25:49;;;;;;;;;;;;;;;18.93;82.84;101120.48;1665564;84;20276;-79
2021/05/07 08:28:19;;;;;;;;;;;;;;;19.03;82.59;101116.02;1712288;84;21382;-77
2021/05/07 08:30:48;;;;;;;;;;;;;;;19.15;80.12;101119.28;1658901;84;20260;-76
2021/05/07 08:33:18;;;;;;;;;;;;;;;19.19;80.02;101107.50;1684473;84;20256;-76
2021/05/07 08:35:45;;;;;;;;;;;;;;;19.24;78.83;101113.14;1667096;83;20355;-80
2021/05/07 08:38:14;;;;;;;;;;;;;;;19.21;77.12;101108.17;1685966;84;20263;-77
2021/05/07 08:40:42;;;;;;;;;;;;;;;19.23;76.46;101106.24;1709329;84;22130;-77
2021/05/07 08:43:11;;;;;;;;;;;;;;;19.16;75.47;101105.16;1714761;82;20670;-77
2021/05/07 08:45:40;;;;;;;;;;;;;;;19.16;74.12;101100.38;1734594;82;20265;-81
2021/05/07 08:48:13;;;;;;;;;;;;;;;19.13;73.81;101093.61;1734553;82;20841;-80
2021/05/07 08:50:48;;;;;;;;;;;;;;;19.14;73.88;101091.33;1734051;82;20297;-78
2021/05/07 08:53:17;;;;;;;;;;;;;;;19.20;74.32;101079.39;1734363;82;21262;-79
2021/05/07 08:55:46;;;;;;;;;;;;;;;19.24;73.99;101081.56;1734317;82;20645;-75
2021/05/07 08:58:15;;;;;;;;;;;;;;;19.29;74.25;101081.14;1734084;82;20340;-77
2021/05/07 09:00:49;;;;;;;;;;;;;;;19.36;74.60;101081.73;1734435;82;20226;-78
2021/05/07 09:03:17;;;;;;;;;;;;;;;19.50;75.08;101075.14;1734521;82;20248;-80
2021/05/07 09:05:52;;;;;;;;;;;;;;;19.61;74.80;101074.94;1728295;82;21200;-81
2021/05/07 09:08:25;;;;;;;;;;;;;;;19.73;73.96;101072.91;1734442;82;20146;-78
2021/05/07 09:10:56;;;;;;;;;;;;;;;19.85;74.57;101067.75;1734724;81;20371;-78
2021/05/07 09:13:25;;;;;;;;;;;;;;;20.04;74.47;101065.78;1731998;82;20206;-80
2021/05/07 09:15:54;;;;;;;;;;;;;;;20.28;74.52;101060.41;1724601;83;20232;-80
2021/05/07 09:18:22;;;;;;;;;;;;;;;20.46;72.74;101061.17;1730274;82;21204;-80
2021/05/07 09:20:53;;;;;;;;;;;;;;;20.64;72.17;101059.33;1724428;83;20224;-80
2021/05/07 09:23:21;;;;;;;;;;;;;;;20.80;71.53;101050.67;1728893;81;20230;-82
2021/05/07 09:26:00;;;;;;;;;;;;;;;20.92;70.87;101038.36;1719354;81;20556;-76
2021/05/07 09:28:28;;;;;;;;;;;;;;;20.99;67.64;101040.70;1719581;83;20220;-83
2021/05/07 09:31:03;;;;;;;;;;;;;;;21.04;66.16;101041.04;1720472;83;21205;-77
2021/05/07 09:33:31;;;;;;;;;;;;;;;21.07;64.37;101033.29;1730308;81;20225;-78
2021/05/07 09:36:03;;;;;;;;;;;;;;;21.07;64.12;101036.77;1732074;83;20297;-81
2021/05/07 09:38:33;;;;;;;;;;;;;;;21.18;63.24;101022.98;1732162;83;20231;-77
2021/05/07 09:41:03;;;;;;;;;;;;;;;21.30;61.58;101018.55;1732094;83;20249;-81
2021/05/07 09:43:32;;;;;;;;;;;;;;;21.32;60.99;101020.53;1732474;82;21181;-85
2021/05/07 09:46:06;;;;;;;;;;;;;;;21.43;61.33;101023.36;1732131;82;20246;-74
2021/05/07 09:48:40;;;;;;;;;;;;;;;21.57;60.69;101022.70;1732092;82;20222;-79
2021/05/07 09:51:12;;;;;;;;;;;;;;;21.55;59.41;101021.56;1732121;82;20717;-76
2021/05/07 09:53:42;;;;;;;;;;;;;;;21.50;60.09;101023.87;1711682;83;20500;-81
2021/05/07 09:56:12;;;;;;;;;;;;;;;21.43;59.94;101011.48;1732252;83;39329;-80
2021/05/07 09:58:40;;;;;;;;;;;;;;;21.37;59.49;101005.53;1732079;83;20147;-83
2021/05/07 10:01:09;;;;;;;;;;;;;;;21.25;59.65;101001.03;1732384;82;20198;-82
2021/05/07 10:03:40;;;;;;;;;;;;;;;21.17;60.24;101001.52;1732555;83;20257;-82
2021/05/07 10:06:08;;;;;;;;;;;;;;;21.16;61.20;101000.69;1732362;83;20147;-80
2021/05/07 10:08:43;;;;;;;;;;;;;;;21.18;61.08;100998.73;1730330;83;21197;-78
2021/05/07 10:11:30;;;;;;;;;;;;;;;21.23;60.93;100995.59;1728321;82;20206;-78
2021/05/07 10:14:04;;;;;;;;;;;;;;;21.28;61.08;100986.22;1709598;83;20248;-76
2021/05/07 10:16:32;;;;;;;;;;;;;;;21.29;61.17;100985.21;1731870;82;20204;-81
2021/05/07 10:19:02;;;;;;;;;;;;;;;21.33;60.49;100981.27;1737115;82;20229;-77
2021/05/07 10:21:41;;;;;;;;;;;;;;;21.47;60.26;100978.48;1727590;82;20524;-82
2021/05/07 10:24:17;;;;;;;;;;;;;;;21.53;58.99;100977.83;1724245;83;20528;-82
2021/05/07 10:26:52;;;;;;;;;;;;;;;21.57;58.65;100974.67;1724453;83;20144;-80
2021/05/07 10:29:26;;;;;;;;;;;;;;;21.66;58.27;100974.70;1724213;83;20140;-78
2021/05/07 10:31:57;;;;;;;;;;;;;;;21.67;57.81;100975.00;1723774;82;20229;-76
2021/05/07 10:34:26;;;;;;;;;;;;;;;21.65;57.85;100969.91;1722940;83;21202;-78
2021/05/07 10:36:59;;;;;;;;;;;;;;;21.55;57.38;100967.42;1725346;83;20513;-80
2021/05/07 10:39:30;;;;;;;;;;;;;;;21.59;57.95;100962.64;1724278;83;20159;-82
2021/05/07 10:41:59;;;;;;;;;;;;;;;21.69;58.00;100964.62;1724508;83;20230;-76
2021/05/07 10:44:28;;;;;;;;;;;;;;;21.95;56.42;100960.52;1725273;83;20489;-75
2021/05/07 10:47:10;;;;;;;;;;;;;;;22.15;55.35;100960.45;1724591;83;21373;-75
2021/05/07 10:49:39;;;;;;;;;;;;;;;22.38;54.10;100959.24;1724159;83;20143;-78
2021/05/07 10:52:09;;;;;;;;;;;;;;;22.46;53.59;100957.38;1724397;83;20497;-77
2021/05/07 10:54:54;;;;;;;;;;;;;;;22.50;54.22;100952.09;1724438;82;20523;-79
2021/05/07 10:57:24;;;;;;;;;;;;;;;22.48;53.59;100947.98;1723609;83;20572;-82
2021/05/07 10:59:56;;;;;;;;;;;;;;;22.54;54.33;100942.83;1724553;83;21259;-78
2021/05/07 11:02:25;;;;;;;;;;;;;;;22.60;54.33;100940.81;1724390;83;20525;-78
2021/05/07 11:04:54;;;;;;;;;;;;;;;22.66;53.61;100934.86;1724723;83;20517;-77
2021/05/07 11:07:29;;;;;;;;;;;;;;;22.77;52.66;100931.51;1724266;83;20493;-75
2021/05/07 11:10:09;;;;;;;;;;;;;;;22.78;51.46;100927.38;1724456;83;20219;-78
2021/05/07 11:12:37;;;;;;;;;;;;;;;22.75;50.58;100922.41;1722682;81;21448;-78
2021/05/07 11:15:19;;;;;;;;;;;;;;;22.75;49.92;100919.76;1724345;83;20115;-78
2021/05/07 11:18:02;;;;;;;;;;;;;;;22.84;49.12;100920.56;1724115;83;20235;-78
2021/05/07 11:20:33;;;;;;;;;;;;;;;22.99;49.10;100918.81;1724288;82;20179;-76
2021/05/07 11:23:04;;;;;;;;;;;;;;;23.11;43.78;100924.02;1723962;82;20234;-76
2021/05/07 11:25:33;;;;;;;;;;;;;;;23.14;42.91;100918.37;1724043;82;21428;-74
2021/05/07 11:28:17;;;;;;;;;;;;;;;23.31;43.67;100911.14;1722652;83;20272;-74
2021/05/07 11:30:51;;;;;;;;;;;;;;;23.56;43.20;100906.81;1734870;81;20225;-75
2021/05/07 11:33:21;;;;;;;;;;;;;;;23.63;41.99;100901.13;1739508;82;20134;-78
2021/05/07 11:36:09;;;;;;;;;;;;;;;23.60;41.68;100901.48;1725241;82;20303;-75
2021/05/07 11:38:41;;;;;;;;;;;;;;;23.56;42.53;100892.24;1723018;83;22366;-74
2021/05/07 11:41:20;;;;;;;;;;;;;;;23.60;41.01;100886.09;1722748;82;20235;-77
2021/05/07 11:43:52;;;;;;;;;;;;;;;23.55;39.72;100886.61;1721753;83;20556;-75
2021/05/07 11:46:20;;;;;;;;;;;;;;;23.50;39.44;100878.89;1721698;83;20149;-77
2021/05/07 11:48:50;;;;;;;;;;;;;;;23.51;40.02;100869.45;1721637;83;20191;-77
2021/05/07 11:51:22;;;;;;;;;;;;;;;23.52;39.12;100864.45;1722819;83;21108;-76
2021/05/07 11:53:57;;;;;;;;;;;;;;;23.59;38.66;100868.53;1724156;82;20160;-79
2021/05/07 11:56:26;;;;;;;;;;;;;;;23.67;38.18;100848.59;1723957;83;20230;-82
2021/05/07 11:58:55;;;;;;;;;;;;;;;23.73;37.27;100851.02;1723932;83;20216;-77
2021/05/07 12:01:25;;;;;;;;;;;;;;;23.68;37.86;100843.59;1724213;82;20270;-76
2021/05/07 12:03:54;;;;;;;;;;;;;;;23.68;38.33;100836.98;1723804;83;21381;-79
2021/05/07 12:06:30;;;;;;;;;;;;;;;23.70;37.67;100833.66;1725020;82;20160;-81
2021/05/07 12:09:09;;;;;;;;;;;;;;;23.61;38.64;100844.03;1724646;82;20584;-78
2021/05/07 12:11:37;;;;;;;;;;;;;;;23.54;38.53;100831.17;1724798;83;20222;-76
2021/05/07 12:14:13;;;;;;;;;;;;;;;23.67;38.50;100829.55;1725442;82;20144;-76
2021/05/07 12:16:41;;;;;;;;;;;;;;;24.11;38.93;100826.92;1725350;83;20470;-75
2021/05/07 12:19:18;;;;;;;;;;;;;;;24.57;37.25;100816.83;1724775;83;20151;-76
2021/05/07 12:21:52;;;;;;;;;;;;;;;24.80;38.00;100811.84;1724152;83;20151;-80
2021/05/07 12:24:27;;;;;;;;;;;;;;;24.89;36.26;100809.44;1724276;82;20275;-77
2021/05/07 12:26:55;;;;;;;;;;;;;;;25.09;36.25;100813.06;1724236;82;20167;-79
2021/05/07 12:29:34;;;;;;;;;;;;;;;25.10;35.51;100806.25;1723894;83;21207;-79
2021/05/07 12:32:05;;;;;;;;;;;;;;;24.95;36.21;100808.67;1723920;83;20239;-77
2021/05/07 12:34:33;;;;;;;;;;;;;;;25.02;36.67;100800.23;1723937;83;20148;-75
2021/05/07 12:37:02;;;;;;;;;;;;;;;25.11;36.83;100798.58;1724975;82;20868;-79
2021/05/07 12:39:36;;;;;;;;;;;;;;;25.18;36.83;100792.81;1724309;83;20204;-76
2021/05/07 12:42:02;;;;;;;;;;;;;;;25.20;36.54;100788.16;1723655;83;21217;-78
2021/05/07 12:44:30;;;;;;;;;;;;;;;25.19;37.01;100783.02;1724539;82;20164;-77
2021/05/07 12:46:59;;;;;;;;;;;;;;;25.16;37.01;100784.73;1724851;83;20545;-78
2021/05/07 12:49:27;;;;;;;;;;;;;;;24.92;37.35;100785.16;1725458;82;20120;-76